Kuujjuaq Airport, Quebec

Past 24 Hour Conditions

Date / Time
(EDT)
Conditions Temp
(°C)
Humidity
(%)
Dew Point
(°C)
Wind
(km/h)
Pressure
(kPa)
Visibility
(km)
29 August 2015
12:00 Light Rainshower 9 92 8 WSW 16 101.1 13
11:00 Mostly Cloudy 10 85 7 WSW 19 101.1 24
10:00 Light Rainshower 9 90 7 WSW 13 gust 29 101.1 19
9:00 Mostly Cloudy 9 89 7 SW 12 101.1 24
8:00 Mostly Cloudy 9 89 7 WSW 13 101.1 24
7:00 Light Rain 8 94 7 WSW 9 101.1 24
6:00 Light Rain 8 94 7 WSW 9 101.1 24
5:00 Light Rain 8 93 7 WSW 9 101.1 24
4:00 Mostly Cloudy 8 91 6 WSW 9 101.1 24
3:00 Mostly Cloudy 8 90 6 SW 8 101.1 24
2:00 Mostly Cloudy 7 89 5 WSW 9 101.1 24
1:00 Mostly Cloudy 6   88 4 WNW 9 101.1 24
00:00 Mainly Clear 7 88 5 WNW 9 101.1 24
28 August 2015
23:00 Mostly Cloudy 8 81 5 NW 10 101.0 24
22:00 Mostly Cloudy 10 73 5 NW 12 101.0 24
21:00 Mostly Cloudy 10 73 6 NW 12 101.0 24
20:00 Mostly Cloudy 10 80 7 WNW 8 100.9 24
19:00 Mostly Cloudy 12 72 7 NW 10 100.8 24
18:00 Mostly Cloudy 13 71 8 NW 13 100.8 24
17:00 Mostly Cloudy 13 71 8 NW 14 100.7 24
16:00 Mostly Cloudy 13 67 8 WNW 8 100.7 24
15:00 Mostly Cloudy 12 71 7 W 10 100.7 24
14:00 Mostly Cloudy 14 64 7 WNW 18 gust 32 100.6 24
13:00 Mostly Cloudy 16   67 10 WNW 15 gust 30 100.5 24
12:00 Mostly Cloudy 15 67 9 W 12 100.5 24
N/A Not available
↑ Highest temperature
↓ Lowest temperature

If you require additional historical weather information, please visit Climate Data Online.

What we are doing

Date modified: